sensor_id;sensor_type;location;lat;lon;timestamp;P1;durP1;ratioP1;P2;durP2;ratioP2
5414;SDS011;2730;51.512;7.504;2023-04-25T00:00:56;13.15;;;3.90;;
5414;SDS011;2730;51.512;7.504;2023-04-25T00:03:23;15.25;;;5.45;;
5414;SDS011;2730;51.512;7.504;2023-04-25T00:05:50;20.33;;;5.45;;
5414;SDS011;2730;51.512;7.504;2023-04-25T00:08:19;10.50;;;4.53;;
5414;SDS011;2730;51.512;7.504;2023-04-25T00:10:45;11.55;;;4.57;;
5414;SDS011;2730;51.512;7.504;2023-04-25T00:13:13;12.98;;;4.15;;
5414;SDS011;2730;51.512;7.504;2023-04-25T00:15:42;10.40;;;4.03;;
5414;SDS011;2730;51.512;7.504;2023-04-25T00:18:09;16.30;;;6.72;;
5414;SDS011;2730;51.512;7.504;2023-04-25T00:20:36;10.18;;;4.20;;
5414;SDS011;2730;51.512;7.504;2023-04-25T00:23:03;9.75;;;4.43;;
5414;SDS011;2730;51.512;7.504;2023-04-25T00:25:32;10.40;;;4.20;;
5414;SDS011;2730;51.512;7.504;2023-04-25T00:27:59;16.80;;;4.25;;
5414;SDS011;2730;51.512;7.504;2023-04-25T00:30:25;5.85;;;3.90;;
5414;SDS011;2730;51.512;7.504;2023-04-25T00:32:52;14.77;;;4.65;;
5414;SDS011;2730;51.512;7.504;2023-04-25T00:35:19;10.52;;;4.53;;
5414;SDS011;2730;51.512;7.504;2023-04-25T00:37:46;10.63;;;4.63;;
5414;SDS011;2730;51.512;7.504;2023-04-25T00:40:13;15.38;;;5.32;;
5414;SDS011;2730;51.512;7.504;2023-04-25T00:42:41;13.25;;;5.03;;
5414;SDS011;2730;51.512;7.504;2023-04-25T00:45:08;11.43;;;4.35;;
5414;SDS011;2730;51.512;7.504;2023-04-25T00:47:39;8.20;;;5.60;;
5414;SDS011;2730;51.512;7.504;2023-04-25T00:50:07;14.38;;;5.30;;
5414;SDS011;2730;51.512;7.504;2023-04-25T00:52:34;13.25;;;5.15;;
5414;SDS011;2730;51.512;7.504;2023-04-25T00:55:02;17.08;;;4.97;;
5414;SDS011;2730;51.512;7.504;2023-04-25T00:57:29;18.63;;;6.32;;
5414;SDS011;2730;51.512;7.504;2023-04-25T00:59:57;13.07;;;5.32;;
5414;SDS011;2730;51.512;7.504;2023-04-25T01:02:25;13.05;;;5.55;;
5414;SDS011;2730;51.512;7.504;2023-04-25T01:04:53;6.25;;;4.65;;
5414;SDS011;2730;51.512;7.504;2023-04-25T01:07:20;13.05;;;5.32;;
5414;SDS011;2730;51.512;7.504;2023-04-25T01:09:46;9.30;;;5.95;;
5414;SDS011;2730;51.512;7.504;2023-04-25T01:12:14;14.25;;;6.22;;
5414;SDS011;2730;51.512;7.504;2023-04-25T01:14:40;14.00;;;4.90;;
5414;SDS011;2730;51.512;7.504;2023-04-25T01:17:09;7.68;;;4.97;;
5414;SDS011;2730;51.512;7.504;2023-04-25T01:19:36;10.52;;;5.18;;
5414;SDS011;2730;51.512;7.504;2023-04-25T01:22:04;12.82;;;5.22;;
5414;SDS011;2730;51.512;7.504;2023-04-25T01:24:32;11.82;;;5.18;;
5414;SDS011;2730;51.512;7.504;2023-04-25T01:26:59;13.48;;;5.05;;
5414;SDS011;2730;51.512;7.504;2023-04-25T01:29:27;14.40;;;6.03;;
5414;SDS011;2730;51.512;7.504;2023-04-25T01:31:54;9.65;;;5.05;;
5414;SDS011;2730;51.512;7.504;2023-04-25T01:34:23;9.52;;;4.63;;
5414;SDS011;2730;51.512;7.504;2023-04-25T01:36:50;15.88;;;5.40;;
5414;SDS011;2730;51.512;7.504;2023-04-25T01:39:19;18.58;;;6.18;;
5414;SDS011;2730;51.512;7.504;2023-04-25T01:41:46;15.43;;;6.22;;
5414;SDS011;2730;51.512;7.504;2023-04-25T01:44:13;23.15;;;6.35;;
5414;SDS011;2730;51.512;7.504;2023-04-25T01:46:40;22.77;;;5.90;;
5414;SDS011;2730;51.512;7.504;2023-04-25T01:49:07;13.52;;;5.55;;
5414;SDS011;2730;51.512;7.504;2023-04-25T01:51:34;18.77;;;6.40;;
5414;SDS011;2730;51.512;7.504;2023-04-25T01:54:01;10.80;;;5.50;;
5414;SDS011;2730;51.512;7.504;2023-04-25T01:56:31;10.02;;;6.30;;
5414;SDS011;2730;51.512;7.504;2023-04-25T01:58:58;13.18;;;5.95;;
5414;SDS011;2730;51.512;7.504;2023-04-25T02:01:25;9.55;;;5.18;;
5414;SDS011;2730;51.512;7.504;2023-04-25T02:03:52;10.82;;;5.22;;
5414;SDS011;2730;51.512;7.504;2023-04-25T02:06:18;18.65;;;5.57;;
5414;SDS011;2730;51.512;7.504;2023-04-25T02:08:45;13.38;;;5.45;;
5414;SDS011;2730;51.512;7.504;2023-04-25T02:11:12;10.82;;;6.35;;
5414;SDS011;2730;51.512;7.504;2023-04-25T02:13:40;12.00;;;7.05;;
5414;SDS011;2730;51.512;7.504;2023-04-25T02:16:07;12.93;;;6.20;;
5414;SDS011;2730;51.512;7.504;2023-04-25T02:18:34;13.35;;;6.65;;
5414;SDS011;2730;51.512;7.504;2023-04-25T02:21:02;13.45;;;6.30;;
5414;SDS011;2730;51.512;7.504;2023-04-25T02:23:29;17.05;;;6.22;;
5414;SDS011;2730;51.512;7.504;2023-04-25T02:25:56;14.05;;;6.32;;
5414;SDS011;2730;51.512;7.504;2023-04-25T02:28:23;15.07;;;7.25;;
5414;SDS011;2730;51.512;7.504;2023-04-25T02:30:51;15.80;;;6.85;;
5414;SDS011;2730;51.512;7.504;2023-04-25T02:33:18;8.85;;;5.82;;
5414;SDS011;2730;51.512;7.504;2023-04-25T02:35:46;17.55;;;6.93;;
5414;SDS011;2730;51.512;7.504;2023-04-25T02:38:12;9.70;;;5.10;;
5414;SDS011;2730;51.512;7.504;2023-04-25T02:40:39;20.27;;;6.10;;
5414;SDS011;2730;51.512;7.504;2023-04-25T02:43:06;14.00;;;6.45;;
5414;SDS011;2730;51.512;7.504;2023-04-25T02:45:33;16.83;;;7.15;;
5414;SDS011;2730;51.512;7.504;2023-04-25T02:48:01;19.35;;;7.07;;
5414;SDS011;2730;51.512;7.504;2023-04-25T02:50:28;13.55;;;8.25;;
5414;SDS011;2730;51.512;7.504;2023-04-25T02:52:55;19.95;;;9.05;;
5414;SDS011;2730;51.512;7.504;2023-04-25T02:55:22;17.00;;;8.10;;
5414;SDS011;2730;51.512;7.504;2023-04-25T02:57:48;19.15;;;9.25;;
5414;SDS011;2730;51.512;7.504;2023-04-25T03:00:15;21.52;;;9.40;;
5414;SDS011;2730;51.512;7.504;2023-04-25T03:02:42;21.63;;;10.40;;
5414;SDS011;2730;51.512;7.504;2023-04-25T03:05:10;21.20;;;8.98;;
5414;SDS011;2730;51.512;7.504;2023-04-25T03:07:37;22.95;;;10.43;;
5414;SDS011;2730;51.512;7.504;2023-04-25T03:10:05;17.23;;;9.52;;
5414;SDS011;2730;51.512;7.504;2023-04-25T03:12:32;22.15;;;9.23;;
5414;SDS011;2730;51.512;7.504;2023-04-25T03:14:59;20.13;;;9.68;;
5414;SDS011;2730;51.512;7.504;2023-04-25T03:17:26;21.83;;;8.70;;
5414;SDS011;2730;51.512;7.504;2023-04-25T03:19:53;18.75;;;8.18;;
5414;SDS011;2730;51.512;7.504;2023-04-25T03:22:21;16.63;;;8.60;;
5414;SDS011;2730;51.512;7.504;2023-04-25T03:24:48;15.20;;;7.55;;
5414;SDS011;2730;51.512;7.504;2023-04-25T03:27:15;30.20;;;7.53;;
5414;SDS011;2730;51.512;7.504;2023-04-25T03:29:42;19.05;;;7.22;;
5414;SDS011;2730;51.512;7.504;2023-04-25T03:32:09;24.30;;;8.88;;
5414;SDS011;2730;51.512;7.504;2023-04-25T03:34:36;15.00;;;7.63;;
5414;SDS011;2730;51.512;7.504;2023-04-25T03:37:02;19.13;;;7.30;;
5414;SDS011;2730;51.512;7.504;2023-04-25T03:39:31;18.83;;;7.47;;
5414;SDS011;2730;51.512;7.504;2023-04-25T03:41:57;27.77;;;7.68;;
5414;SDS011;2730;51.512;7.504;2023-04-25T03:44:24;26.13;;;6.95;;
5414;SDS011;2730;51.512;7.504;2023-04-25T03:46:51;13.80;;;6.45;;
5414;SDS011;2730;51.512;7.504;2023-04-25T03:49:18;16.88;;;9.13;;
5414;SDS011;2730;51.512;7.504;2023-04-25T03:51:45;18.60;;;6.68;;
5414;SDS011;2730;51.512;7.504;2023-04-25T03:54:11;18.65;;;8.23;;
5414;SDS011;2730;51.512;7.504;2023-04-25T03:56:39;16.13;;;6.47;;
5414;SDS011;2730;51.512;7.504;2023-04-25T03:59:06;12.85;;;6.05;;
5414;SDS011;2730;51.512;7.504;2023-04-25T04:01:33;18.80;;;7.30;;
5414;SDS011;2730;51.512;7.504;2023-04-25T04:04:00;19.02;;;6.28;;
5414;SDS011;2730;51.512;7.504;2023-04-25T04:06:27;15.13;;;6.75;;
5414;SDS011;2730;51.512;7.504;2023-04-25T04:08:54;15.80;;;5.72;;
5414;SDS011;2730;51.512;7.504;2023-04-25T04:11:21;28.08;;;7.38;;
5414;SDS011;2730;51.512;7.504;2023-04-25T04:13:49;16.13;;;5.82;;
5414;SDS011;2730;51.512;7.504;2023-04-25T04:16:16;21.02;;;6.45;;
5414;SDS011;2730;51.512;7.504;2023-04-25T04:18:44;18.20;;;7.35;;
5414;SDS011;2730;51.512;7.504;2023-04-25T04:21:11;13.18;;;5.55;;
5414;SDS011;2730;51.512;7.504;2023-04-25T04:23:38;15.75;;;4.65;;
5414;SDS011;2730;51.512;7.504;2023-04-25T04:26:05;12.50;;;3.05;;
5414;SDS011;2730;51.512;7.504;2023-04-25T04:28:32;6.30;;;2.90;;
5414;SDS011;2730;51.512;7.504;2023-04-25T04:31:00;14.07;;;3.85;;
5414;SDS011;2730;51.512;7.504;2023-04-25T04:33:27;6.40;;;3.60;;
5414;SDS011;2730;51.512;7.504;2023-04-25T04:35:54;11.25;;;3.03;;
5414;SDS011;2730;51.512;7.504;2023-04-25T04:38:21;11.82;;;3.67;;
5414;SDS011;2730;51.512;7.504;2023-04-25T04:40:48;6.90;;;3.22;;
5414;SDS011;2730;51.512;7.504;2023-04-25T04:43:15;13.10;;;3.58;;
5414;SDS011;2730;51.512;7.504;2023-04-25T04:45:43;7.47;;;3.13;;
5414;SDS011;2730;51.512;7.504;2023-04-25T04:48:11;8.38;;;3.22;;
5414;SDS011;2730;51.512;7.504;2023-04-25T04:50:39;6.78;;;2.55;;
5414;SDS011;2730;51.512;7.504;2023-04-25T04:53:06;15.50;;;3.00;;
5414;SDS011;2730;51.512;7.504;2023-04-25T04:55:33;9.30;;;2.78;;
5414;SDS011;2730;51.512;7.504;2023-04-25T04:57:59;8.63;;;3.50;;
5414;SDS011;2730;51.512;7.504;2023-04-25T05:00:26;10.40;;;2.75;;
5414;SDS011;2730;51.512;7.504;2023-04-25T05:02:54;11.50;;;3.80;;
5414;SDS011;2730;51.512;7.504;2023-04-25T05:05:22;8.23;;;2.80;;
5414;SDS011;2730;51.512;7.504;2023-04-25T05:07:49;12.48;;;2.80;;
5414;SDS011;2730;51.512;7.504;2023-04-25T05:10:16;8.55;;;3.13;;
5414;SDS011;2730;51.512;7.504;2023-04-25T05:12:43;7.13;;;2.90;;
5414;SDS011;2730;51.512;7.504;2023-04-25T05:15:10;14.02;;;3.47;;
5414;SDS011;2730;51.512;7.504;2023-04-25T05:17:37;5.60;;;3.50;;
5414;SDS011;2730;51.512;7.504;2023-04-25T05:20:04;13.57;;;4.40;;
5414;SDS011;2730;51.512;7.504;2023-04-25T05:22:35;15.85;;;3.63;;
5414;SDS011;2730;51.512;7.504;2023-04-25T05:25:02;6.68;;;2.95;;
5414;SDS011;2730;51.512;7.504;2023-04-25T05:27:29;12.20;;;3.42;;
5414;SDS011;2730;51.512;7.504;2023-04-25T05:29:56;8.68;;;3.00;;
5414;SDS011;2730;51.512;7.504;2023-04-25T05:32:23;7.15;;;2.67;;
5414;SDS011;2730;51.512;7.504;2023-04-25T05:34:50;10.52;;;3.35;;
5414;SDS011;2730;51.512;7.504;2023-04-25T05:37:16;8.18;;;2.80;;
5414;SDS011;2730;51.512;7.504;2023-04-25T05:39:45;14.73;;;4.35;;
5414;SDS011;2730;51.512;7.504;2023-04-25T05:42:11;11.82;;;3.25;;
5414;SDS011;2730;51.512;7.504;2023-04-25T05:44:38;10.05;;;3.17;;
5414;SDS011;2730;51.512;7.504;2023-04-25T05:47:05;12.82;;;3.58;;
5414;SDS011;2730;51.512;7.504;2023-04-25T05:49:32;16.77;;;3.83;;
5414;SDS011;2730;51.512;7.504;2023-04-25T05:51:59;9.10;;;3.38;;
5414;SDS011;2730;51.512;7.504;2023-04-25T05:54:26;11.90;;;3.22;;
5414;SDS011;2730;51.512;7.504;2023-04-25T05:56:55;9.90;;;3.40;;
5414;SDS011;2730;51.512;7.504;2023-04-25T05:59:22;11.02;;;3.80;;
5414;SDS011;2730;51.512;7.504;2023-04-25T06:01:49;12.93;;;4.13;;
5414;SDS011;2730;51.512;7.504;2023-04-25T06:04:16;15.20;;;4.45;;
5414;SDS011;2730;51.512;7.504;2023-04-25T06:06:43;16.10;;;4.40;;
5414;SDS011;2730;51.512;7.504;2023-04-25T06:09:10;9.55;;;3.45;;
5414;SDS011;2730;51.512;7.504;2023-04-25T06:11:37;8.40;;;3.42;;
5414;SDS011;2730;51.512;7.504;2023-04-25T06:14:05;7.68;;;3.47;;
5414;SDS011;2730;51.512;7.504;2023-04-25T06:16:32;6.25;;;3.80;;
5414;SDS011;2730;51.512;7.504;2023-04-25T06:18:59;11.32;;;3.53;;
5414;SDS011;2730;51.512;7.504;2023-04-25T06:21:25;12.10;;;3.80;;
5414;SDS011;2730;51.512;7.504;2023-04-25T06:23:53;17.33;;;4.30;;
5414;SDS011;2730;51.512;7.504;2023-04-25T06:26:19;15.40;;;4.18;;
5414;SDS011;2730;51.512;7.504;2023-04-25T06:28:46;15.60;;;4.68;;
5414;SDS011;2730;51.512;7.504;2023-04-25T06:31:14;24.95;;;4.47;;
5414;SDS011;2730;51.512;7.504;2023-04-25T06:33:41;17.20;;;4.20;;
5414;SDS011;2730;51.512;7.504;2023-04-25T06:36:08;14.45;;;4.78;;
5414;SDS011;2730;51.512;7.504;2023-04-25T06:38:34;13.85;;;3.75;;
5414;SDS011;2730;51.512;7.504;2023-04-25T06:41:01;11.63;;;3.50;;
5414;SDS011;2730;51.512;7.504;2023-04-25T06:43:28;10.80;;;4.90;;
5414;SDS011;2730;51.512;7.504;2023-04-25T06:45:57;19.55;;;4.68;;
5414;SDS011;2730;51.512;7.504;2023-04-25T06:48:26;11.23;;;5.18;;
5414;SDS011;2730;51.512;7.504;2023-04-25T06:50:52;11.20;;;5.32;;
5414;SDS011;2730;51.512;7.504;2023-04-25T06:53:20;16.88;;;5.95;;
5414;SDS011;2730;51.512;7.504;2023-04-25T06:55:46;15.82;;;4.78;;
5414;SDS011;2730;51.512;7.504;2023-04-25T06:58:13;11.18;;;4.90;;
5414;SDS011;2730;51.512;7.504;2023-04-25T07:00:40;7.35;;;4.35;;
5414;SDS011;2730;51.512;7.504;2023-04-25T07:03:07;10.95;;;4.75;;
5414;SDS011;2730;51.512;7.504;2023-04-25T07:05:35;19.15;;;4.80;;
5414;SDS011;2730;51.512;7.504;2023-04-25T07:08:01;14.55;;;3.85;;
5414;SDS011;2730;51.512;7.504;2023-04-25T07:10:29;10.02;;;3.92;;
5414;SDS011;2730;51.512;7.504;2023-04-25T07:12:56;6.68;;;3.50;;
5414;SDS011;2730;51.512;7.504;2023-04-25T07:15:22;17.70;;;4.72;;
5414;SDS011;2730;51.512;7.504;2023-04-25T07:17:49;17.65;;;4.35;;
5414;SDS011;2730;51.512;7.504;2023-04-25T07:20:16;13.00;;;4.30;;
5414;SDS011;2730;51.512;7.504;2023-04-25T07:22:44;6.90;;;3.47;;
5414;SDS011;2730;51.512;7.504;2023-04-25T07:25:11;12.00;;;3.47;;
5414;SDS011;2730;51.512;7.504;2023-04-25T07:27:38;11.30;;;2.97;;
5414;SDS011;2730;51.512;7.504;2023-04-25T07:30:06;12.73;;;4.28;;
5414;SDS011;2730;51.512;7.504;2023-04-25T07:32:33;10.25;;;2.90;;
5414;SDS011;2730;51.512;7.504;2023-04-25T07:35:00;8.60;;;3.83;;
5414;SDS011;2730;51.512;7.504;2023-04-25T07:37:28;11.48;;;3.50;;
5414;SDS011;2730;51.512;7.504;2023-04-25T07:39:56;8.60;;;3.00;;
5414;SDS011;2730;51.512;7.504;2023-04-25T07:42:23;12.80;;;4.70;;
5414;SDS011;2730;51.512;7.504;2023-04-25T07:44:50;7.55;;;3.50;;
5414;SDS011;2730;51.512;7.504;2023-04-25T07:47:17;15.15;;;3.78;;
5414;SDS011;2730;51.512;7.504;2023-04-25T07:49:45;14.65;;;4.25;;
5414;SDS011;2730;51.512;7.504;2023-04-25T07:52:11;10.43;;;4.40;;
5414;SDS011;2730;51.512;7.504;2023-04-25T07:54:38;13.35;;;3.97;;
5414;SDS011;2730;51.512;7.504;2023-04-25T07:57:06;10.75;;;3.85;;
5414;SDS011;2730;51.512;7.504;2023-04-25T07:59:33;9.25;;;4.03;;
5414;SDS011;2730;51.512;7.504;2023-04-25T08:02:00;16.60;;;4.00;;
5414;SDS011;2730;51.512;7.504;2023-04-25T08:04:27;12.70;;;5.75;;
5414;SDS011;2730;51.512;7.504;2023-04-25T08:06:54;8.23;;;4.50;;
5414;SDS011;2730;51.512;7.504;2023-04-25T08:09:21;13.20;;;3.70;;
5414;SDS011;2730;51.512;7.504;2023-04-25T08:11:48;11.07;;;3.80;;
5414;SDS011;2730;51.512;7.504;2023-04-25T08:14:16;24.35;;;5.53;;
5414;SDS011;2730;51.512;7.504;2023-04-25T08:16:43;11.98;;;3.88;;
5414;SDS011;2730;51.512;7.504;2023-04-25T08:19:10;12.68;;;3.95;;
5414;SDS011;2730;51.512;7.504;2023-04-25T08:21:37;11.38;;;3.33;;
5414;SDS011;2730;51.512;7.504;2023-04-25T08:24:04;13.88;;;3.28;;
5414;SDS011;2730;51.512;7.504;2023-04-25T08:26:31;11.68;;;2.97;;
5414;SDS011;2730;51.512;7.504;2023-04-25T08:28:58;9.02;;;2.80;;
5414;SDS011;2730;51.512;7.504;2023-04-25T08:31:26;9.73;;;2.78;;
5414;SDS011;2730;51.512;7.504;2023-04-25T08:33:53;10.60;;;3.05;;
5414;SDS011;2730;51.512;7.504;2023-04-25T08:36:19;9.55;;;2.90;;
5414;SDS011;2730;51.512;7.504;2023-04-25T08:38:46;7.40;;;2.30;;
5414;SDS011;2730;51.512;7.504;2023-04-25T08:41:13;5.72;;;2.50;;
5414;SDS011;2730;51.512;7.504;2023-04-25T08:43:41;9.18;;;2.10;;
5414;SDS011;2730;51.512;7.504;2023-04-25T08:46:09;9.45;;;2.80;;
5414;SDS011;2730;51.512;7.504;2023-04-25T08:48:40;5.55;;;2.70;;
5414;SDS011;2730;51.512;7.504;2023-04-25T08:51:08;10.20;;;2.25;;
5414;SDS011;2730;51.512;7.504;2023-04-25T08:53:40;11.18;;;2.60;;
5414;SDS011;2730;51.512;7.504;2023-04-25T08:56:08;7.53;;;2.42;;
5414;SDS011;2730;51.512;7.504;2023-04-25T08:58:38;8.27;;;2.85;;
5414;SDS011;2730;51.512;7.504;2023-04-25T09:01:05;3.72;;;2.80;;
5414;SDS011;2730;51.512;7.504;2023-04-25T09:03:32;11.45;;;2.47;;
5414;SDS011;2730;51.512;7.504;2023-04-25T09:06:00;10.95;;;2.45;;
5414;SDS011;2730;51.512;7.504;2023-04-25T09:08:27;4.40;;;2.10;;
5414;SDS011;2730;51.512;7.504;2023-04-25T09:10:55;13.77;;;1.95;;
5414;SDS011;2730;51.512;7.504;2023-04-25T09:13:24;9.57;;;2.58;;
5414;SDS011;2730;51.512;7.504;2023-04-25T09:15:52;7.88;;;2.38;;
5414;SDS011;2730;51.512;7.504;2023-04-25T09:18:23;14.40;;;2.25;;
5414;SDS011;2730;51.512;7.504;2023-04-25T09:20:51;9.05;;;2.28;;
5414;SDS011;2730;51.512;7.504;2023-04-25T09:23:20;6.93;;;2.25;;
5414;SDS011;2730;51.512;7.504;2023-04-25T09:25:49;7.15;;;2.25;;
5414;SDS011;2730;51.512;7.504;2023-04-25T09:28:17;7.90;;;1.88;;
5414;SDS011;2730;51.512;7.504;2023-04-25T09:30:49;10.18;;;2.60;;
5414;SDS011;2730;51.512;7.504;2023-04-25T09:33:26;5.65;;;2.17;;
5414;SDS011;2730;51.512;7.504;2023-04-25T09:35:56;10.38;;;2.75;;
5414;SDS011;2730;51.512;7.504;2023-04-25T09:38:30;4.70;;;2.67;;
5414;SDS011;2730;51.512;7.504;2023-04-25T09:40:57;11.93;;;2.28;;
5414;SDS011;2730;51.512;7.504;2023-04-25T09:43:25;6.35;;;2.15;;
5414;SDS011;2730;51.512;7.504;2023-04-25T09:45:53;14.18;;;3.60;;
5414;SDS011;2730;51.512;7.504;2023-04-25T09:48:22;6.97;;;2.17;;
5414;SDS011;2730;51.512;7.504;2023-04-25T09:51:03;7.13;;;2.92;;
5414;SDS011;2730;51.512;7.504;2023-04-25T09:53:33;10.07;;;2.25;;
5414;SDS011;2730;51.512;7.504;2023-04-25T09:56:00;5.32;;;2.42;;
5414;SDS011;2730;51.512;7.504;2023-04-25T09:58:31;11.75;;;2.75;;
5414;SDS011;2730;51.512;7.504;2023-04-25T10:00:59;3.83;;;1.90;;
5414;SDS011;2730;51.512;7.504;2023-04-25T10:03:28;6.95;;;2.45;;
5414;SDS011;2730;51.512;7.504;2023-04-25T10:05:56;14.88;;;2.00;;
5414;SDS011;2730;51.512;7.504;2023-04-25T10:08:26;4.53;;;2.83;;
5414;SDS011;2730;51.512;7.504;2023-04-25T10:10:59;7.70;;;2.20;;
5414;SDS011;2730;51.512;7.504;2023-04-25T10:13:27;3.15;;;1.85;;
5414;SDS011;2730;51.512;7.504;2023-04-25T10:15:55;8.60;;;2.30;;
5414;SDS011;2730;51.512;7.504;2023-04-25T10:18:24;6.28;;;2.28;;
5414;SDS011;2730;51.512;7.504;2023-04-25T10:20:51;1.60;;;1.40;;
5414;SDS011;2730;51.512;7.504;2023-04-25T10:23:19;4.45;;;2.20;;
5414;SDS011;2730;51.512;7.504;2023-04-25T10:25:46;8.82;;;1.98;;
5414;SDS011;2730;51.512;7.504;2023-04-25T10:28:15;9.18;;;2.00;;
5414;SDS011;2730;51.512;7.504;2023-04-25T10:30:56;4.93;;;1.70;;
5414;SDS011;2730;51.512;7.504;2023-04-25T10:33:29;4.07;;;1.80;;
5414;SDS011;2730;51.512;7.504;2023-04-25T10:35:58;4.68;;;1.77;;
5414;SDS011;2730;51.512;7.504;2023-04-25T10:38:34;4.90;;;1.60;;
5414;SDS011;2730;51.512;7.504;2023-04-25T10:41:04;5.05;;;1.70;;
5414;SDS011;2730;51.512;7.504;2023-04-25T10:43:35;7.55;;;1.77;;
5414;SDS011;2730;51.512;7.504;2023-04-25T10:46:12;7.32;;;2.08;;
5414;SDS011;2730;51.512;7.504;2023-04-25T10:48:43;7.32;;;1.95;;
5414;SDS011;2730;51.512;7.504;2023-04-25T10:51:15;1.50;;;1.40;;
5414;SDS011;2730;51.512;7.504;2023-04-25T10:53:43;3.92;;;1.60;;
5414;SDS011;2730;51.512;7.504;2023-04-25T10:56:11;1.70;;;1.30;;
5414;SDS011;2730;51.512;7.504;2023-04-25T10:58:44;6.72;;;1.60;;
5414;SDS011;2730;51.512;7.504;2023-04-25T11:01:12;2.70;;;1.10;;
5414;SDS011;2730;51.512;7.504;2023-04-25T11:03:40;4.72;;;1.35;;
5414;SDS011;2730;51.512;7.504;2023-04-25T11:06:10;6.20;;;1.70;;
5414;SDS011;2730;51.512;7.504;2023-04-25T11:08:46;2.88;;;1.40;;
5414;SDS011;2730;51.512;7.504;2023-04-25T11:11:14;2.63;;;1.52;;
5414;SDS011;2730;51.512;7.504;2023-04-25T11:13:42;2.70;;;1.67;;
5414;SDS011;2730;51.512;7.504;2023-04-25T11:16:10;2.80;;;1.30;;
5414;SDS011;2730;51.512;7.504;2023-04-25T11:18:37;2.92;;;1.42;;
5414;SDS011;2730;51.512;7.504;2023-04-25T11:21:03;7.30;;;1.50;;
5414;SDS011;2730;51.512;7.504;2023-04-25T11:23:31;2.63;;;1.45;;
5414;SDS011;2730;51.512;7.504;2023-04-25T11:25:58;2.75;;;1.23;;
5414;SDS011;2730;51.512;7.504;2023-04-25T11:28:26;2.80;;;1.35;;
5414;SDS011;2730;51.512;7.504;2023-04-25T11:30:53;6.03;;;1.50;;
5414;SDS011;2730;51.512;7.504;2023-04-25T11:33:23;4.97;;;1.60;;
5414;SDS011;2730;51.512;7.504;2023-04-25T11:35:52;2.70;;;1.63;;
5414;SDS011;2730;51.512;7.504;2023-04-25T11:38:20;2.65;;;1.65;;
5414;SDS011;2730;51.512;7.504;2023-04-25T11:40:49;5.05;;;1.60;;
5414;SDS011;2730;51.512;7.504;2023-04-25T11:43:17;5.13;;;1.73;;
5414;SDS011;2730;51.512;7.504;2023-04-25T11:45:45;7.20;;;1.98;;
5414;SDS011;2730;51.512;7.504;2023-04-25T11:48:13;3.15;;;1.50;;
5414;SDS011;2730;51.512;7.504;2023-04-25T11:50:41;2.00;;;1.40;;
5414;SDS011;2730;51.512;7.504;2023-04-25T11:53:07;5.43;;;1.40;;
5414;SDS011;2730;51.512;7.504;2023-04-25T11:55:35;4.35;;;1.80;;
5414;SDS011;2730;51.512;7.504;2023-04-25T11:58:03;2.67;;;1.38;;
5414;SDS011;2730;51.512;7.504;2023-04-25T12:00:31;1.42;;;1.10;;
5414;SDS011;2730;51.512;7.504;2023-04-25T12:02:58;2.45;;;0.90;;
5414;SDS011;2730;51.512;7.504;2023-04-25T12:05:26;6.85;;;1.50;;
5414;SDS011;2730;51.512;7.504;2023-04-25T12:07:56;2.00;;;1.25;;
5414;SDS011;2730;51.512;7.504;2023-04-25T12:10:24;2.85;;;1.42;;
5414;SDS011;2730;51.512;7.504;2023-04-25T12:12:51;5.88;;;1.55;;
5414;SDS011;2730;51.512;7.504;2023-04-25T12:15:24;2.70;;;1.10;;
5414;SDS011;2730;51.512;7.504;2023-04-25T12:17:52;2.63;;;1.42;;
5414;SDS011;2730;51.512;7.504;2023-04-25T12:20:20;1.30;;;1.20;;
5414;SDS011;2730;51.512;7.504;2023-04-25T12:22:50;5.03;;;1.35;;
5414;SDS011;2730;51.512;7.504;2023-04-25T12:25:38;4.50;;;1.35;;
5414;SDS011;2730;51.512;7.504;2023-04-25T12:28:10;1.95;;;1.30;;
5414;SDS011;2730;51.512;7.504;2023-04-25T12:30:51;1.98;;;1.00;;
5414;SDS011;2730;51.512;7.504;2023-04-25T12:33:22;1.92;;;1.13;;
5414;SDS011;2730;51.512;7.504;2023-04-25T12:35:49;0.80;;;0.80;;
5414;SDS011;2730;51.512;7.504;2023-04-25T12:38:23;1.67;;;1.00;;
5414;SDS011;2730;51.512;7.504;2023-04-25T12:40:52;3.72;;;1.15;;
5414;SDS011;2730;51.512;7.504;2023-04-25T12:43:20;2.70;;;1.10;;
5414;SDS011;2730;51.512;7.504;2023-04-25T12:45:47;1.58;;;0.70;;
5414;SDS011;2730;51.512;7.504;2023-04-25T12:48:15;2.75;;;1.10;;
5414;SDS011;2730;51.512;7.504;2023-04-25T12:50:41;2.95;;;1.75;;
5414;SDS011;2730;51.512;7.504;2023-04-25T12:53:08;4.38;;;1.00;;
5414;SDS011;2730;51.512;7.504;2023-04-25T12:55:35;2.10;;;1.10;;
5414;SDS011;2730;51.512;7.504;2023-04-25T12:58:03;6.18;;;1.00;;
5414;SDS011;2730;51.512;7.504;2023-04-25T13:00:30;1.75;;;1.02;;
5414;SDS011;2730;51.512;7.504;2023-04-25T13:02:57;1.13;;;0.70;;
5414;SDS011;2730;51.512;7.504;2023-04-25T13:05:24;0.85;;;0.85;;
5414;SDS011;2730;51.512;7.504;2023-04-25T13:07:51;4.90;;;1.05;;
5414;SDS011;2730;51.512;7.504;2023-04-25T13:10:18;1.80;;;0.95;;
5414;SDS011;2730;51.512;7.504;2023-04-25T13:12:45;0.88;;;0.82;;
5414;SDS011;2730;51.512;7.504;2023-04-25T13:15:13;10.82;;;2.45;;
5414;SDS011;2730;51.512;7.504;2023-04-25T13:17:40;2.33;;;1.55;;
5414;SDS011;2730;51.512;7.504;2023-04-25T13:20:08;4.85;;;1.30;;
5414;SDS011;2730;51.512;7.504;2023-04-25T13:22:35;1.90;;;1.10;;
5414;SDS011;2730;51.512;7.504;2023-04-25T13:25:03;2.80;;;1.00;;
5414;SDS011;2730;51.512;7.504;2023-04-25T13:27:30;1.63;;;0.85;;
5414;SDS011;2730;51.512;7.504;2023-04-25T13:29:58;1.80;;;0.90;;
5414;SDS011;2730;51.512;7.504;2023-04-25T13:32:27;2.10;;;1.30;;
5414;SDS011;2730;51.512;7.504;2023-04-25T13:34:54;1.90;;;0.80;;
5414;SDS011;2730;51.512;7.504;2023-04-25T13:37:21;1.58;;;0.95;;
5414;SDS011;2730;51.512;7.504;2023-04-25T13:39:49;5.00;;;0.95;;
5414;SDS011;2730;51.512;7.504;2023-04-25T13:42:16;1.02;;;0.90;;
5414;SDS011;2730;51.512;7.504;2023-04-25T13:44:42;2.65;;;1.60;;
5414;SDS011;2730;51.512;7.504;2023-04-25T13:47:10;1.30;;;1.00;;
5414;SDS011;2730;51.512;7.504;2023-04-25T13:49:38;3.33;;;0.88;;
5414;SDS011;2730;51.512;7.504;2023-04-25T13:52:05;4.30;;;1.10;;
5414;SDS011;2730;51.512;7.504;2023-04-25T13:54:32;1.35;;;0.90;;
5414;SDS011;2730;51.512;7.504;2023-04-25T13:56:59;1.15;;;1.05;;
5414;SDS011;2730;51.512;7.504;2023-04-25T13:59:27;4.25;;;2.35;;
5414;SDS011;2730;51.512;7.504;2023-04-25T14:01:53;3.38;;;1.15;;
5414;SDS011;2730;51.512;7.504;2023-04-25T14:04:20;1.52;;;1.42;;
5414;SDS011;2730;51.512;7.504;2023-04-25T14:06:48;2.28;;;1.00;;
5414;SDS011;2730;51.512;7.504;2023-04-25T14:09:16;1.38;;;1.00;;
5414;SDS011;2730;51.512;7.504;2023-04-25T14:11:43;5.00;;;1.40;;
5414;SDS011;2730;51.512;7.504;2023-04-25T14:14:10;5.45;;;1.77;;
5414;SDS011;2730;51.512;7.504;2023-04-25T14:16:37;3.10;;;1.17;;
5414;SDS011;2730;51.512;7.504;2023-04-25T14:19:04;2.65;;;1.48;;
5414;SDS011;2730;51.512;7.504;2023-04-25T14:21:30;1.50;;;1.40;;
5414;SDS011;2730;51.512;7.504;2023-04-25T14:23:59;3.65;;;1.10;;
5414;SDS011;2730;51.512;7.504;2023-04-25T14:26:26;3.72;;;1.27;;
5414;SDS011;2730;51.512;7.504;2023-04-25T14:28:53;7.75;;;1.48;;
5414;SDS011;2730;51.512;7.504;2023-04-25T14:31:20;2.15;;;1.45;;
5414;SDS011;2730;51.512;7.504;2023-04-25T14:33:47;3.08;;;1.50;;
5414;SDS011;2730;51.512;7.504;2023-04-25T14:36:13;3.17;;;1.45;;
5414;SDS011;2730;51.512;7.504;2023-04-25T14:38:40;1.42;;;1.30;;
5414;SDS011;2730;51.512;7.504;2023-04-25T14:41:09;4.47;;;1.58;;
5414;SDS011;2730;51.512;7.504;2023-04-25T14:43:36;3.05;;;1.30;;
5414;SDS011;2730;51.512;7.504;2023-04-25T14:46:04;2.30;;;1.17;;
5414;SDS011;2730;51.512;7.504;2023-04-25T14:48:31;2.97;;;1.08;;
5414;SDS011;2730;51.512;7.504;2023-04-25T14:50:58;3.20;;;1.25;;
5414;SDS011;2730;51.512;7.504;2023-04-25T14:53:26;1.65;;;1.10;;
5414;SDS011;2730;51.512;7.504;2023-04-25T14:55:53;3.17;;;1.05;;
5414;SDS011;2730;51.512;7.504;2023-04-25T14:58:21;1.98;;;0.88;;
5414;SDS011;2730;51.512;7.504;2023-04-25T15:00:48;2.15;;;1.10;;
5414;SDS011;2730;51.512;7.504;2023-04-25T15:03:15;1.92;;;1.15;;
5414;SDS011;2730;51.512;7.504;2023-04-25T15:05:43;1.85;;;1.40;;
5414;SDS011;2730;51.512;7.504;2023-04-25T15:08:10;5.40;;;1.33;;
5414;SDS011;2730;51.512;7.504;2023-04-25T15:10:37;2.70;;;1.33;;